Terminal Aerodrome Forecast
Issued by NWS

Home | Current Version | Previous Version | Text Only | Print | Product List | Glossary On
Versions: 1 2 3 4 5 6 7 8 9 10 11 12 13 14
000
FTUS44 KJAN 272333
TAFGTR
TAF
KGTR 272333Z 2800/2824 17005KT P6SM SCT060 BKN120
     FM280700 18006KT P6SM BKN025
     FM280900 19007KT P6SM BKN012
     FM281500 23010KT P6SM VCSH SCT010 BKN025
     FM281800 25010KT P6SM VCTS SCT025 BKN035CB
     FM282300 26007KT P6SM FEW030 BKN100=

USA.gov is the U.S. government's official web portal to all federal, state and local government web resources and services.